sensor_id;sensor_type;location;lat;lon;timestamp;pressure;altitude;pressure_sealevel;temperature;humidity
15050;BME280;7622;42.724;23.250;2022-10-17T17:24:22;96195.06;;;14.52;72.62
15050;BME280;7622;42.724;23.250;2022-10-17T17:26:50;96189.84;;;14.31;74.47
15050;BME280;7622;42.724;23.250;2022-10-17T17:29:17;96195.44;;;14.27;74.36
15050;BME280;7622;42.724;23.250;2022-10-17T17:31:44;96198.00;;;14.17;76.27
15050;BME280;7622;42.724;23.250;2022-10-17T17:34:13;96202.09;;;13.99;77.18
15050;BME280;7622;42.724;23.250;2022-10-17T17:36:40;96202.75;;;14.12;76.54
15050;BME280;7622;42.724;23.250;2022-10-17T17:39:09;96204.91;;;14.07;76.96
15050;BME280;7622;42.724;23.250;2022-10-17T17:41:38;96210.34;;;13.94;78.21
15050;BME280;7622;42.724;23.250;2022-10-17T17:44:05;96207.63;;;13.85;79.44
15050;BME280;7622;42.724;23.250;2022-10-17T17:46:33;96204.56;;;13.79;79.13
15050;BME280;7622;42.724;23.250;2022-10-17T17:49:00;96204.88;;;13.65;80.50
15050;BME280;7622;42.724;23.250;2022-10-17T17:51:27;96209.34;;;13.74;80.58
15050;BME280;7622;42.724;23.250;2022-10-17T17:53:54;96216.88;;;13.57;82.73
15050;BME280;7622;42.724;23.250;2022-10-17T17:56:22;96206.81;;;13.52;83.04
15050;BME280;7622;42.724;23.250;2022-10-17T17:58:54;96207.91;;;13.70;81.49
15050;BME280;7622;42.724;23.250;2022-10-17T18:01:23;96207.97;;;13.59;81.92
15050;BME280;7622;42.724;23.250;2022-10-17T18:03:52;96213.66;;;13.64;82.93
15050;BME280;7622;42.724;23.250;2022-10-17T18:06:20;96213.41;;;13.67;81.89
15050;BME280;7622;42.724;23.250;2022-10-17T18:08:48;96217.97;;;13.54;84.41
15050;BME280;7622;42.724;23.250;2022-10-17T18:11:16;96217.03;;;13.55;85.21
15050;BME280;7622;42.724;23.250;2022-10-17T18:13:42;96221.75;;;13.50;85.73
15050;BME280;7622;42.724;23.250;2022-10-17T18:16:11;96219.47;;;13.57;85.51
15050;BME280;7622;42.724;23.250;2022-10-17T18:18:40;96222.25;;;13.44;86.84
15050;BME280;7622;42.724;23.250;2022-10-17T18:21:08;96227.38;;;13.34;88.67
15050;BME280;7622;42.724;23.250;2022-10-17T18:23:35;96227.72;;;13.41;88.74
15050;BME280;7622;42.724;23.250;2022-10-17T18:26:03;96223.56;;;13.38;88.78
15050;BME280;7622;42.724;23.250;2022-10-17T18:28:32;96222.25;;;13.44;89.04
15050;BME280;7622;42.724;23.250;2022-10-17T18:31:03;96221.56;;;13.31;90.49
15050;BME280;7622;42.724;23.250;2022-10-17T18:33:32;96232.25;;;13.28;91.59
15050;BME280;7622;42.724;23.250;2022-10-17T18:36:02;96237.47;;;13.28;91.87
15050;BME280;7622;42.724;23.250;2022-10-17T18:38:29;96221.59;;;13.20;92.79
15050;BME280;7622;42.724;23.250;2022-10-17T18:41:01;96226.56;;;13.12;93.64
15050;BME280;7622;42.724;23.250;2022-10-17T18:43:28;96221.22;;;13.02;94.76
15050;BME280;7622;42.724;23.250;2022-10-17T18:46:01;96225.97;;;12.97;95.33
15050;BME280;7622;42.724;23.250;2022-10-17T18:48:29;96218.03;;;12.98;95.05
15050;BME280;7622;42.724;23.250;2022-10-17T18:50:57;96194.78;;;12.73;95.26
15050;BME280;7622;42.724;23.250;2022-10-17T18:53:23;96228.09;;;12.81;96.46
15050;BME280;7622;42.724;23.250;2022-10-17T18:55:50;96232.00;;;12.86;95.94
15050;BME280;7622;42.724;23.250;2022-10-17T18:58:17;96229.75;;;13.04;94.21
15050;BME280;7622;42.724;23.250;2022-10-17T19:00:46;96231.75;;;13.00;94.21
15050;BME280;7622;42.724;23.250;2022-10-17T19:03:13;96243.03;;;12.90;94.25
15050;BME280;7622;42.724;23.250;2022-10-17T19:05:40;96250.97;;;12.88;95.17
15050;BME280;7622;42.724;23.250;2022-10-17T19:08:11;96221.59;;;12.64;96.71
15050;BME280;7622;42.724;23.250;2022-10-17T19:10:38;96248.13;;;12.80;96.48
15050;BME280;7622;42.724;23.250;2022-10-17T19:13:06;96250.16;;;12.88;96.50
15050;BME280;7622;42.724;23.250;2022-10-17T19:15:33;96249.06;;;12.79;96.75
15050;BME280;7622;42.724;23.250;2022-10-17T19:17:59;96250.28;;;12.97;94.13
15050;BME280;7622;42.724;23.250;2022-10-17T19:20:26;96250.75;;;12.91;94.54
15050;BME280;7622;42.724;23.250;2022-10-17T19:22:53;96251.91;;;12.87;95.20
15050;BME280;7622;42.724;23.250;2022-10-17T19:25:21;96251.44;;;12.82;96.38
15050;BME280;7622;42.724;23.250;2022-10-17T19:27:48;96257.97;;;12.88;96.38
15050;BME280;7622;42.724;23.250;2022-10-17T19:30:15;96254.78;;;12.84;97.65
15050;BME280;7622;42.724;23.250;2022-10-17T19:32:42;96255.72;;;12.72;99.07
15050;BME280;7622;42.724;23.250;2022-10-17T19:35:08;96255.47;;;12.75;98.46
15050;BME280;7622;42.724;23.250;2022-10-17T19:37:36;96260.19;;;12.59;100.00
15050;BME280;7622;42.724;23.250;2022-10-17T19:40:04;96263.63;;;12.48;100.00
15050;BME280;7622;42.724;23.250;2022-10-17T19:42:32;96263.50;;;12.50;100.00
15050;BME280;7622;42.724;23.250;2022-10-17T19:44:59;96256.16;;;12.55;100.00
15050;BME280;7622;42.724;23.250;2022-10-17T19:47:27;96248.56;;;12.41;100.00
15050;BME280;7622;42.724;23.250;2022-10-17T19:49:54;96258.19;;;12.74;99.54
15050;BME280;7622;42.724;23.250;2022-10-17T19:52:22;96246.09;;;12.50;100.00
15050;BME280;7622;42.724;23.250;2022-10-17T19:54:52;96273.16;;;12.26;100.00
15050;BME280;7622;42.724;23.250;2022-10-17T19:57:21;96265.00;;;11.95;100.00
15050;BME280;7622;42.724;23.250;2022-10-17T19:59:53;96275.44;;;11.95;100.00
15050;BME280;7622;42.724;23.250;2022-10-17T20:02:23;96267.44;;;11.86;100.00
15050;BME280;7622;42.724;23.250;2022-10-17T20:04:51;96270.81;;;11.62;100.00
15050;BME280;7622;42.724;23.250;2022-10-17T20:07:18;96276.41;;;11.69;100.00
15050;BME280;7622;42.724;23.250;2022-10-17T20:09:45;96275.94;;;11.64;100.00
15050;BME280;7622;42.724;23.250;2022-10-17T20:12:11;96265.22;;;11.56;100.00
15050;BME280;7622;42.724;23.250;2022-10-17T20:14:38;96275.72;;;11.67;100.00
15050;BME280;7622;42.724;23.250;2022-10-17T20:17:06;96271.94;;;11.71;100.00
15050;BME280;7622;42.724;23.250;2022-10-17T20:19:33;96278.19;;;11.81;100.00
15050;BME280;7622;42.724;23.250;2022-10-17T20:22:00;96273.59;;;11.72;100.00
15050;BME280;7622;42.724;23.250;2022-10-17T20:24:27;96274.13;;;11.77;100.00
15050;BME280;7622;42.724;23.250;2022-10-17T20:26:53;96275.16;;;11.87;100.00
15050;BME280;7622;42.724;23.250;2022-10-17T20:29:20;96269.59;;;11.92;100.00
15050;BME280;7622;42.724;23.250;2022-10-17T20:31:48;96268.53;;;11.94;100.00
15050;BME280;7622;42.724;23.250;2022-10-17T20:34:17;96256.16;;;11.74;100.00
15050;BME280;7622;42.724;23.250;2022-10-17T20:36:44;96264.75;;;11.98;100.00
15050;BME280;7622;42.724;23.250;2022-10-17T20:39:12;96256.03;;;11.75;100.00
15050;BME280;7622;42.724;23.250;2022-10-17T20:41:40;96251.38;;;11.55;100.00
15050;BME280;7622;42.724;23.250;2022-10-17T20:44:07;96251.38;;;11.55;100.00
15050;BME280;7622;42.724;23.250;2022-10-17T20:46:35;96234.09;;;11.30;100.00
15050;BME280;7622;42.724;23.250;2022-10-17T20:49:02;96243.09;;;11.14;100.00
15050;BME280;7622;42.724;23.250;2022-10-17T20:51:30;96257.03;;;11.49;100.00
15050;BME280;7622;42.724;23.250;2022-10-17T20:53:57;96174.13;;;11.08;100.00
15050;BME280;7622;42.724;23.250;2022-10-17T20:56:25;96257.88;;;11.50;100.00
15050;BME280;7622;42.724;23.250;2022-10-17T20:58:53;96255.28;;;11.13;100.00
15050;BME280;7622;42.724;23.250;2022-10-17T21:01:22;96251.94;;;11.11;100.00
15050;BME280;7622;42.724;23.250;2022-10-17T21:03:52;96249.44;;;11.10;100.00
15050;BME280;7622;42.724;23.250;2022-10-17T21:06:21;96254.19;;;10.92;100.00
15050;BME280;7622;42.724;23.250;2022-10-17T21:08:51;96244.91;;;10.88;100.00
15050;BME280;7622;42.724;23.250;2022-10-17T21:11:21;96245.84;;;10.87;100.00
15050;BME280;7622;42.724;23.250;2022-10-17T21:13:53;96236.81;;;10.80;100.00
15050;BME280;7622;42.724;23.250;2022-10-17T21:16:20;96251.25;;;10.58;100.00
15050;BME280;7622;42.724;23.250;2022-10-17T21:18:47;96217.31;;;10.36;100.00
15050;BME280;7622;42.724;23.250;2022-10-17T21:21:16;96251.19;;;10.47;100.00
15050;BME280;7622;42.724;23.250;2022-10-17T21:23:45;96248.16;;;10.53;100.00
15050;BME280;7622;42.724;23.250;2022-10-17T21:26:14;96252.00;;;10.35;100.00
15050;BME280;7622;42.724;23.250;2022-10-17T21:28:42;96256.59;;;10.05;100.00
15050;BME280;7622;42.724;23.250;2022-10-17T21:31:12;96253.22;;;10.17;100.00
15050;BME280;7622;42.724;23.250;2022-10-17T21:33:39;96261.38;;;10.11;100.00
15050;BME280;7622;42.724;23.250;2022-10-17T21:36:07;96260.19;;;9.89;100.00
15050;BME280;7622;42.724;23.250;2022-10-17T21:38:35;96248.69;;;9.54;100.00
15050;BME280;7622;42.724;23.250;2022-10-17T21:41:03;96262.53;;;9.67;100.00
15050;BME280;7622;42.724;23.250;2022-10-17T21:43:32;96253.88;;;9.54;100.00
15050;BME280;7622;42.724;23.250;2022-10-17T21:46:01;96253.59;;;9.71;100.00
15050;BME280;7622;42.724;23.250;2022-10-17T21:48:28;96255.38;;;9.71;100.00
15050;BME280;7622;42.724;23.250;2022-10-17T21:50:57;96254.13;;;9.76;100.00
15050;BME280;7622;42.724;23.250;2022-10-17T21:53:24;96256.09;;;9.73;100.00
15050;BME280;7622;42.724;23.250;2022-10-17T21:55:51;96251.28;;;9.54;100.00
15050;BME280;7622;42.724;23.250;2022-10-17T21:58:18;96259.44;;;9.34;100.00
15050;BME280;7622;42.724;23.250;2022-10-17T22:00:47;96255.72;;;9.11;100.00
15050;BME280;7622;42.724;23.250;2022-10-17T22:03:14;96263.44;;;8.98;100.00
15050;BME280;7622;42.724;23.250;2022-10-17T22:05:42;96252.56;;;9.06;100.00
15050;BME280;7622;42.724;23.250;2022-10-17T22:08:10;96255.13;;;9.20;100.00
15050;BME280;7622;42.724;23.250;2022-10-17T22:10:37;96253.75;;;9.15;100.00
15050;BME280;7622;42.724;23.250;2022-10-17T22:13:04;96249.72;;;9.11;100.00
15050;BME280;7622;42.724;23.250;2022-10-17T22:15:31;96249.75;;;9.23;100.00
15050;BME280;7622;42.724;23.250;2022-10-17T22:17:59;96250.78;;;9.21;100.00
15050;BME280;7622;42.724;23.250;2022-10-17T22:20:26;96247.63;;;9.30;100.00
15050;BME280;7622;42.724;23.250;2022-10-17T22:22:53;96248.94;;;9.23;100.00
15050;BME280;7622;42.724;23.250;2022-10-17T22:25:19;96248.41;;;9.03;100.00
15050;BME280;7622;42.724;23.250;2022-10-17T22:27:46;96251.94;;;9.02;100.00
15050;BME280;7622;42.724;23.250;2022-10-17T22:30:13;96247.47;;;9.19;100.00
15050;BME280;7622;42.724;23.250;2022-10-17T22:32:40;96252.50;;;8.93;100.00
15050;BME280;7622;42.724;23.250;2022-10-17T22:35:08;96254.00;;;8.83;100.00
15050;BME280;7622;42.724;23.250;2022-10-17T22:37:35;96244.31;;;9.14;100.00
15050;BME280;7622;42.724;23.250;2022-10-17T22:40:02;96241.94;;;8.96;100.00
15050;BME280;7622;42.724;23.250;2022-10-17T22:42:29;96233.63;;;8.91;100.00
15050;BME280;7622;42.724;23.250;2022-10-17T22:44:59;96244.69;;;9.07;100.00
15050;BME280;7622;42.724;23.250;2022-10-17T22:47:27;96249.91;;;8.93;100.00
15050;BME280;7622;42.724;23.250;2022-10-17T22:49:53;96247.69;;;8.59;100.00
15050;BME280;7622;42.724;23.250;2022-10-17T22:52:22;96243.81;;;8.66;100.00
15050;BME280;7622;42.724;23.250;2022-10-17T22:54:49;96241.78;;;8.71;100.00
15050;BME280;7622;42.724;23.250;2022-10-17T22:57:16;96245.47;;;8.67;100.00
15050;BME280;7622;42.724;23.250;2022-10-17T22:59:42;96242.34;;;8.76;100.00
15050;BME280;7622;42.724;23.250;2022-10-17T23:02:09;96246.03;;;8.58;100.00
15050;BME280;7622;42.724;23.250;2022-10-17T23:04:36;96241.22;;;8.52;100.00
15050;BME280;7622;42.724;23.250;2022-10-17T23:07:03;96252.69;;;8.62;100.00
15050;BME280;7622;42.724;23.250;2022-10-17T23:09:34;96248.63;;;8.72;100.00
15050;BME280;7622;42.724;23.250;2022-10-17T23:12:01;96239.47;;;8.66;100.00
15050;BME280;7622;42.724;23.250;2022-10-17T23:14:28;96244.84;;;8.49;100.00
15050;BME280;7622;42.724;23.250;2022-10-17T23:16:55;96181.44;;;8.12;100.00
15050;BME280;7622;42.724;23.250;2022-10-17T23:19:22;96246.59;;;8.35;100.00
15050;BME280;7622;42.724;23.250;2022-10-17T23:21:48;96253.75;;;8.29;100.00
15050;BME280;7622;42.724;23.250;2022-10-17T23:24:15;96254.19;;;8.08;100.00
15050;BME280;7622;42.724;23.250;2022-10-17T23:26:43;96247.13;;;8.10;100.00
15050;BME280;7622;42.724;23.250;2022-10-17T23:29:11;96244.75;;;8.07;100.00
15050;BME280;7622;42.724;23.250;2022-10-17T23:31:41;96240.50;;;8.20;100.00
15050;BME280;7622;42.724;23.250;2022-10-17T23:34:09;96239.34;;;7.96;100.00
15050;BME280;7622;42.724;23.250;2022-10-17T23:36:36;96240.56;;;8.04;100.00
15050;BME280;7622;42.724;23.250;2022-10-17T23:39:03;96234.88;;;8.13;100.00
15050;BME280;7622;42.724;23.250;2022-10-17T23:41:30;96232.66;;;8.21;100.00
15050;BME280;7622;42.724;23.250;2022-10-17T23:43:58;96236.66;;;8.27;100.00
15050;BME280;7622;42.724;23.250;2022-10-17T23:46:25;96228.03;;;8.26;100.00
15050;BME280;7622;42.724;23.250;2022-10-17T23:48:52;96233.38;;;8.09;100.00
15050;BME280;7622;42.724;23.250;2022-10-17T23:51:19;96232.84;;;8.18;100.00
15050;BME280;7622;42.724;23.250;2022-10-17T23:53:46;96228.31;;;8.22;100.00
15050;BME280;7622;42.724;23.250;2022-10-17T23:56:12;96221.38;;;8.08;100.00
15050;BME280;7622;42.724;23.250;2022-10-17T23:58:39;96221.47;;;8.21;100.00
